createdAt,value
2023-07-18T00:01:25.712Z,102052.75
2023-07-18T00:03:52.478Z,102050.22
2023-07-18T00:06:19.588Z,102049.38
2023-07-18T00:08:46.934Z,102048.78
2023-07-18T00:11:13.410Z,102045.22
2023-07-18T00:13:39.929Z,102042.69
2023-07-18T00:16:06.458Z,102047.31
2023-07-18T00:18:32.978Z,102041.84
2023-07-18T00:20:59.445Z,102045.63
2023-07-18T00:23:25.919Z,102045.00
2023-07-18T00:25:52.365Z,102046.88
2023-07-18T00:28:18.872Z,102043.56
2023-07-18T00:30:45.425Z,102036.88
2023-07-18T00:33:12.229Z,102034.34
2023-07-18T00:35:38.720Z,102037.91
2023-07-18T00:38:05.160Z,102037.06
2023-07-18T00:40:31.915Z,102046.94
2023-07-18T00:42:58.462Z,102043.97
2023-07-18T00:45:25.949Z,102041.25
2023-07-18T00:47:52.969Z,102040.19
2023-07-18T00:50:19.774Z,102042.50
2023-07-18T00:52:49.765Z,102049.03
2023-07-18T00:55:17.393Z,102046.72
2023-07-18T00:57:46.358Z,102047.78
2023-07-18T01:00:14.701Z,102048.19
2023-07-18T01:02:46.012Z,102040.25
2023-07-18T01:05:17.819Z,102041.50
2023-07-18T01:07:45.371Z,102038.16
2023-07-18T01:10:24.625Z,102033.31
2023-07-18T01:13:00.145Z,102039.84
2023-07-18T01:15:29.489Z,102037.94
2023-07-18T01:17:56.507Z,102042.56
2023-07-18T01:20:25.183Z,102039.00
2023-07-18T01:22:53.352Z,102046.34
2023-07-18T01:25:20.307Z,102040.25
2023-07-18T01:27:51.783Z,102042.13
2023-07-18T01:30:20.589Z,102040.69
2023-07-18T01:32:51.205Z,102041.13
2023-07-18T01:35:20.718Z,102026.88
2023-07-18T01:37:48.238Z,102035.88
2023-07-18T01:40:16.880Z,102031.69
2023-07-18T01:42:43.920Z,102028.97
2023-07-18T01:45:11.339Z,102027.47
2023-07-18T01:47:39.667Z,102032.09
2023-07-18T01:50:08.054Z,102033.34
2023-07-18T01:52:35.546Z,102025.16
2023-07-18T01:55:04.320Z,102027.06
2023-07-18T01:57:33.132Z,102025.63
2023-07-18T02:00:00.615Z,102024.78
2023-07-18T02:02:30.684Z,102025.19
2023-07-18T02:04:58.320Z,102019.34
2023-07-18T02:07:26.779Z,102016.63
2023-07-18T02:09:53.247Z,102017.66
2023-07-18T02:12:20.611Z,102008.44
2023-07-18T02:14:47.568Z,101999.00
2023-07-18T02:17:14.706Z,102001.53
2023-07-18T02:19:41.241Z,101999.63
2023-07-18T02:22:07.792Z,102002.34
2023-07-18T02:24:34.784Z,101993.56
2023-07-18T02:27:03.954Z,101996.28
2023-07-18T02:29:30.418Z,101986.66
2023-07-18T02:31:56.952Z,101994.00
2023-07-18T02:34:23.446Z,102001.53
2023-07-18T02:36:50.290Z,101999.88
2023-07-18T02:39:16.739Z,101999.22
2023-07-18T02:41:43.232Z,101998.38
2023-07-18T02:44:09.746Z,101988.56
2023-07-18T02:46:36.214Z,101994.00
2023-07-18T02:49:04.149Z,101985.00
2023-07-18T02:51:31.264Z,101980.38
2023-07-18T02:53:58.436Z,101986.88
2023-07-18T02:56:24.960Z,101981.63
2023-07-18T02:58:51.592Z,101980.81
2023-07-18T03:01:20.746Z,101991.69
2023-07-18T03:03:47.775Z,101992.97
2023-07-18T03:06:17.244Z,101985.00
2023-07-18T03:08:43.798Z,101986.47
2023-07-18T03:11:10.239Z,101988.38
2023-07-18T03:13:37.529Z,101986.69
2023-07-18T03:16:06.146Z,101996.09
2023-07-18T03:18:33.048Z,101986.09
2023-07-18T03:20:59.625Z,101987.97
2023-07-18T03:23:27.167Z,101981.88
2023-07-18T03:25:53.629Z,101985.66
2023-07-18T03:28:20.879Z,101982.13
2023-07-18T03:30:47.445Z,101982.13
2023-07-18T03:33:14.057Z,101991.94
2023-07-18T03:35:40.569Z,101985.66
2023-07-18T03:38:07.070Z,101990.47
2023-07-18T03:40:35.520Z,101983.34
2023-07-18T03:43:02.206Z,101985.25
2023-07-18T03:45:30.156Z,101991.53
2023-07-18T03:47:56.982Z,101982.53
2023-07-18T03:50:23.574Z,101988.81
2023-07-18T03:52:50.065Z,102004.50
2023-07-18T03:55:16.676Z,101997.19
2023-07-18T03:57:43.370Z,101996.56
2023-07-18T04:00:15.275Z,101990.06
2023-07-18T04:02:46.449Z,101996.34
2023-07-18T04:05:15.071Z,102004.50
2023-07-18T04:07:42.523Z,101999.28
2023-07-18T04:10:09.592Z,101998.03
2023-07-18T04:12:36.218Z,101993.41
2023-07-18T04:15:02.862Z,101990.91
2023-07-18T04:17:29.287Z,101991.75
2023-07-18T04:19:59.635Z,101988.81
2023-07-18T04:22:30.622Z,101982.31
2023-07-18T04:24:57.510Z,101985.03
2023-07-18T04:27:24.447Z,101987.13
2023-07-18T04:29:50.988Z,101983.78
2023-07-18T04:32:21.144Z,101986.28
2023-07-18T04:34:50.894Z,101982.75
2023-07-18T04:37:17.360Z,101982.34
2023-07-18T04:39:43.796Z,101981.91
2023-07-18T04:42:12.249Z,101989.84
2023-07-18T04:44:39.119Z,101982.50
2023-07-18T04:47:05.993Z,101982.94
2023-07-18T04:49:33.012Z,101981.47
2023-07-18T04:51:59.483Z,101978.53
2023-07-18T04:54:26.292Z,101980.00
2023-07-18T04:56:54.640Z,101980.00
2023-07-18T04:59:22.529Z,101982.53
2023-07-18T05:01:52.892Z,101972.91
2023-07-18T05:04:19.491Z,101978.75
2023-07-18T05:06:46.238Z,101973.97
2023-07-18T05:09:13.225Z,101972.28
2023-07-18T05:11:39.665Z,101970.00
2023-07-18T05:14:06.189Z,101969.78
2023-07-18T05:16:32.592Z,101972.06
2023-07-18T05:18:59.082Z,101968.31
2023-07-18T05:21:25.666Z,101967.06
2023-07-18T05:23:52.395Z,101965.59
2023-07-18T05:26:18.839Z,101956.78
2023-07-18T05:28:45.293Z,101959.31
2023-07-18T05:31:11.875Z,101957.22
2023-07-18T05:33:38.449Z,101957.63
2023-07-18T05:36:05.343Z,101959.72
2023-07-18T05:38:31.780Z,101966.63
2023-07-18T05:40:58.263Z,101960.13
2023-07-18T05:43:25.433Z,101968.72
2023-07-18T05:45:51.978Z,101966.41
2023-07-18T05:48:18.494Z,101972.44
2023-07-18T05:50:44.972Z,101972.88
2023-07-18T05:53:11.451Z,101981.22
2023-07-18T05:55:39.423Z,101970.09
2023-07-18T05:58:05.978Z,101978.69
2023-07-18T06:00:32.438Z,101976.19
2023-07-18T06:02:59.206Z,101982.22
2023-07-18T06:05:28.133Z,101981.16
2023-07-18T06:07:54.604Z,101979.88
2023-07-18T06:10:21.073Z,101987.84
2023-07-18T06:12:47.477Z,101993.91
2023-07-18T06:15:13.933Z,101985.13
2023-07-18T06:17:40.607Z,101992.03
2023-07-18T06:20:12.971Z,101992.88
2023-07-18T06:22:40.076Z,101988.72
2023-07-18T06:25:07.510Z,101985.78
2023-07-18T06:27:34.088Z,101989.97
2023-07-18T06:30:00.653Z,101993.13
2023-07-18T06:32:30.020Z,101989.16
2023-07-18T06:35:00.720Z,101986.03
2023-07-18T06:37:30.438Z,101993.34
2023-07-18T06:39:57.012Z,101989.19
2023-07-18T06:42:23.500Z,101986.84
2023-07-18T06:44:51.241Z,101992.69
2023-07-18T06:47:17.894Z,101982.44
2023-07-18T06:49:44.351Z,101985.78
2023-07-18T06:52:10.819Z,101989.38
2023-07-18T06:54:37.279Z,101984.13
2023-07-18T06:57:03.811Z,101990.38
2023-07-18T06:59:30.261Z,101982.03
2023-07-18T07:01:56.870Z,101989.56
2023-07-18T07:04:23.895Z,101988.50
2023-07-18T07:06:50.326Z,101989.31
2023-07-18T07:09:16.821Z,101990.78
2023-07-18T07:11:44.199Z,101991.41
2023-07-18T07:14:12.382Z,102002.09
2023-07-18T07:16:38.913Z,101988.72
2023-07-18T07:19:06.538Z,101989.75
2023-07-18T07:21:33.222Z,102002.34
2023-07-18T07:23:59.618Z,101991.81
2023-07-18T07:26:26.166Z,101995.53
2023-07-18T07:28:52.673Z,101998.00
2023-07-18T07:31:19.583Z,101988.50
2023-07-18T07:33:46.389Z,101985.84
2023-07-18T07:36:12.950Z,101986.25
2023-07-18T07:38:39.415Z,101985.59
2023-07-18T07:41:06.466Z,101983.03
2023-07-18T07:43:34.084Z,101986.00
2023-07-18T07:46:01.109Z,101966.91
2023-07-18T07:48:27.654Z,101971.03
2023-07-18T07:50:54.133Z,101969.31
2023-07-18T07:53:20.607Z,101968.03
2023-07-18T07:55:47.128Z,101959.56
2023-07-18T07:58:13.612Z,101961.19
2023-07-18T08:00:40.088Z,101959.09
2023-07-18T08:03:06.542Z,101964.97
2023-07-18T08:05:33.097Z,101959.66
2023-07-18T08:07:59.633Z,101955.00
2023-07-18T08:10:26.107Z,101953.50
2023-07-18T08:12:52.582Z,101943.78
2023-07-18T08:15:19.754Z,101945.03
2023-07-18T08:17:46.378Z,101933.88
2023-07-18T08:20:13.890Z,101939.31
2023-07-18T08:22:41.036Z,101941.78
2023-07-18T08:25:07.920Z,101940.66
2023-07-18T08:27:34.346Z,101951.66
2023-07-18T08:30:00.828Z,101939.00
2023-07-18T08:32:29.953Z,101950.78
2023-07-18T08:34:56.701Z,101949.09
2023-07-18T08:37:23.169Z,101948.63
2023-07-18T08:39:49.607Z,101949.56
2023-07-18T08:42:18.792Z,101954.94
2023-07-18T08:44:46.708Z,101954.63
2023-07-18T08:47:14.240Z,101951.84
2023-07-18T08:49:41.734Z,101947.63
2023-07-18T08:52:08.644Z,101946.34
2023-07-18T08:54:35.755Z,101945.66
2023-07-18T08:57:04.567Z,101937.22
2023-07-18T08:59:31.673Z,101935.94
2023-07-18T09:01:58.308Z,101934.19
2023-07-18T09:04:25.147Z,101935.25
2023-07-18T09:07:01.832Z,101939.88
2023-07-18T09:09:28.766Z,101937.38
2023-07-18T09:12:01.482Z,101935.16
2023-07-18T09:14:32.482Z,101927.72
2023-07-18T09:17:05.718Z,101921.56
2023-07-18T09:19:42.444Z,101917.63
2023-07-18T09:22:13.783Z,101907.69
2023-07-18T09:24:41.824Z,101910.16
2023-07-18T09:27:10.298Z,101913.66
2023-07-18T09:29:37.968Z,101916.13
2023-07-18T09:32:04.973Z,101916.25
2023-07-18T09:34:32.063Z,101909.59
2023-07-18T09:37:00.595Z,101912.56
2023-07-18T09:39:28.122Z,101913.53
2023-07-18T09:41:56.668Z,101908.78
2023-07-18T09:44:32.956Z,101919.34
2023-07-18T09:47:02.210Z,101920.91
2023-07-18T09:52:09.855Z,101918.06
2023-07-18T09:54:36.406Z,101904.19
2023-07-18T09:57:13.299Z,101905.97
2023-07-18T09:59:40.788Z,101906.59
2023-07-18T10:02:10.305Z,101903.16
2023-07-18T10:04:38.008Z,101898.13
2023-07-18T10:07:05.219Z,101899.47
2023-07-18T10:09:33.621Z,101897.66
2023-07-18T10:11:59.964Z,101899.69
2023-07-18T10:14:53.829Z,101902.09
2023-07-18T10:17:28.893Z,101892.94
2023-07-18T10:19:55.906Z,101894.25
2023-07-18T10:22:27.046Z,101885.44
2023-07-18T10:24:53.705Z,101888.88
2023-07-18T10:27:25.491Z,101892.25
2023-07-18T10:30:09.323Z,101888.41
2023-07-18T10:32:38.603Z,101882.34
2023-07-18T10:35:08.978Z,101875.44
2023-07-18T10:37:37.672Z,101886.75
2023-07-18T10:40:09.206Z,101870.19
2023-07-18T10:42:36.291Z,101871.53
2023-07-18T10:45:07.553Z,101866.25
2023-07-18T10:47:37.084Z,101858.97
2023-07-18T10:50:08.016Z,101865.78
2023-07-18T10:52:36.026Z,101858.16
2023-07-18T10:55:05.165Z,101847.81
2023-07-18T10:57:33.947Z,101852.84
2023-07-18T11:00:02.347Z,101859.03
2023-07-18T11:02:36.232Z,101852.94
2023-07-18T11:05:12.134Z,101847.97
2023-07-18T11:07:48.856Z,101849.28
2023-07-18T11:10:16.299Z,101842.72
2023-07-18T11:12:44.084Z,101845.81
2023-07-18T11:15:12.405Z,101843.66
2023-07-18T11:17:43.426Z,101835.78
2023-07-18T11:20:12.626Z,101829.69
2023-07-18T11:22:40.692Z,101838.41
2023-07-18T11:25:07.590Z,101832.31
2023-07-18T11:27:34.122Z,101831.00
2023-07-18T11:30:02.686Z,101831.97
2023-07-18T11:32:40.166Z,101828.28
2023-07-18T11:35:11.602Z,101823.78
2023-07-18T11:37:42.425Z,101825.56
2023-07-18T11:40:11.044Z,101825.81
2023-07-18T11:42:52.043Z,101814.41
2023-07-18T11:45:21.666Z,101821.06
2023-07-18T11:47:59.683Z,101824.63
2023-07-18T11:50:30.903Z,101828.19
2023-07-18T11:52:59.774Z,101821.88
2023-07-18T11:55:26.661Z,101821.63
2023-07-18T11:57:53.314Z,101823.28
2023-07-18T12:00:20.493Z,101812.22
2023-07-18T12:02:49.898Z,101810.41
2023-07-18T12:05:19.689Z,101808.13
2023-07-18T12:07:46.834Z,101819.22
2023-07-18T12:10:16.603Z,101815.16
2023-07-18T12:12:44.703Z,101813.00
2023-07-18T12:15:12.461Z,101807.06
2023-07-18T12:17:40.104Z,101812.75
2023-07-18T12:20:08.380Z,101813.25
2023-07-18T12:22:38.042Z,101805.38
2023-07-18T12:25:06.290Z,101805.97
2023-07-18T12:27:33.787Z,101805.25
2023-07-18T12:30:00.615Z,101803.06
2023-07-18T12:32:30.394Z,101798.88
2023-07-18T12:34:59.016Z,101802.06
2023-07-18T12:37:26.743Z,101791.19
2023-07-18T12:39:53.626Z,101793.69
2023-07-18T12:42:20.252Z,101790.44
2023-07-18T12:44:47.368Z,101784.72
2023-07-18T12:47:14.058Z,101794.34
2023-07-18T12:52:10.058Z,101784.56
2023-07-18T12:54:36.547Z,101781.81
2023-07-18T12:57:03.233Z,101783.72
2023-07-18T12:59:29.860Z,101785.06
2023-07-18T13:01:56.919Z,101783.16
2023-07-18T13:04:24.612Z,101792.97
2023-07-18T13:06:51.783Z,101786.38
2023-07-18T13:09:20.465Z,101771.16
2023-07-18T13:11:47.165Z,101781.91
2023-07-18T13:14:17.732Z,101776.47
2023-07-18T13:16:44.336Z,101777.97
2023-07-18T13:19:10.824Z,101769.06
2023-07-18T13:21:37.429Z,101762.75
2023-07-18T13:24:04.118Z,101764.16
2023-07-18T13:26:30.649Z,101764.25
2023-07-18T13:28:58.639Z,101762.38
2023-07-18T13:31:25.159Z,101761.00
2023-07-18T13:33:51.693Z,101761.50
2023-07-18T13:36:18.640Z,101754.16
2023-07-18T13:38:45.483Z,101756.00
2023-07-18T13:41:12.217Z,101753.59
2023-07-18T13:43:40.460Z,101755.34
2023-07-18T13:46:07.504Z,101748.78
2023-07-18T13:48:34.333Z,101741.63
2023-07-18T13:51:00.987Z,101743.81
2023-07-18T13:53:27.865Z,101741.63
2023-07-18T13:55:54.407Z,101744.63
2023-07-18T13:58:20.862Z,101734.50
2023-07-18T14:00:47.694Z,101733.91
2023-07-18T14:03:32.061Z,101725.44
2023-07-18T14:06:01.180Z,101726.38
2023-07-18T14:08:29.224Z,101721.63
2023-07-18T14:10:56.004Z,101726.66
2023-07-18T14:13:22.697Z,101724.00
2023-07-18T14:15:49.346Z,101723.19
2023-07-18T14:18:16.063Z,101723.75
2023-07-18T14:20:42.670Z,101719.59
2023-07-18T14:23:09.298Z,101712.94
2023-07-18T14:25:35.835Z,101705.25
2023-07-18T14:28:02.348Z,101706.00
2023-07-18T14:30:28.868Z,101696.19
2023-07-18T14:32:55.666Z,101694.88
2023-07-18T14:35:22.457Z,101691.72
2023-07-18T14:37:51.198Z,101686.88
2023-07-18T14:40:17.871Z,101686.94
2023-07-18T14:42:44.397Z,101694.59
2023-07-18T14:45:11.048Z,101685.53
2023-07-18T14:47:37.654Z,101692.13
2023-07-18T14:50:04.483Z,101689.59
2023-07-18T14:52:31.355Z,101679.16
2023-07-18T14:54:58.219Z,101684.88
2023-07-18T14:57:26.553Z,101676.88
2023-07-18T14:59:54.254Z,101674.22
2023-07-18T15:02:21.652Z,101678.72
2023-07-18T15:04:48.330Z,101683.94
2023-07-18T15:07:14.939Z,101681.47
2023-07-18T15:09:41.433Z,101685.25
2023-07-18T15:12:08.340Z,101681.97
2023-07-18T15:14:34.927Z,101687.41
2023-07-18T15:17:01.480Z,101690.63
2023-07-18T15:19:27.921Z,101687.78
2023-07-18T15:21:54.808Z,101681.34
2023-07-18T15:24:21.761Z,101667.31
2023-07-18T15:26:48.454Z,101671.97
2023-07-18T15:29:14.927Z,101680.44
2023-07-18T15:31:41.680Z,101680.78
2023-07-18T15:34:09.235Z,101673.69
2023-07-18T15:36:35.873Z,101673.78
2023-07-18T15:39:02.366Z,101671.31
2023-07-18T15:41:28.808Z,101677.41
2023-07-18T15:43:55.339Z,101679.03
2023-07-18T15:46:22.020Z,101664.16
2023-07-18T15:48:48.778Z,101669.28
2023-07-18T15:51:15.295Z,101672.81
2023-07-18T15:53:41.796Z,101665.06
2023-07-18T15:56:10.331Z,101663.69
2023-07-18T15:58:36.921Z,101658.69
2023-07-18T16:01:03.499Z,101662.00
2023-07-18T16:03:30.124Z,101663.41
2023-07-18T16:05:56.733Z,101645.84
2023-07-18T16:08:23.465Z,101632.91
2023-07-18T16:10:49.979Z,101639.44
2023-07-18T16:13:16.562Z,101631.75
2023-07-18T16:15:43.336Z,101629.00
2023-07-18T16:18:09.880Z,101627.09
2023-07-18T16:20:36.382Z,101628.75
2023-07-18T16:23:05.502Z,101627.41
2023-07-18T16:25:32.108Z,101628.50
2023-07-18T16:27:58.598Z,101625.75
2023-07-18T16:30:25.155Z,101624.94
2023-07-18T16:32:51.636Z,101624.94
2023-07-18T16:35:18.200Z,101625.44
2023-07-18T16:37:44.677Z,101618.53
2023-07-18T16:40:11.489Z,101612.22
2023-07-18T16:42:37.972Z,101600.16
2023-07-18T16:45:04.775Z,101604.25
2023-07-18T16:47:31.219Z,101614.59
2023-07-18T16:49:57.799Z,101608.78
2023-07-18T16:52:24.332Z,101606.03
2023-07-18T16:54:50.846Z,101601.00
2023-07-18T16:57:17.647Z,101596.78
2023-07-18T16:59:44.092Z,101597.59
2023-07-18T17:02:10.514Z,101600.06
2023-07-18T17:04:37.222Z,101596.72
2023-07-18T17:07:03.893Z,101598.69
2023-07-18T17:09:30.363Z,101591.28
2023-07-18T17:11:56.889Z,101593.81
2023-07-18T17:14:23.356Z,101594.03
2023-07-18T17:16:51.006Z,101603.94
2023-07-18T17:19:17.560Z,101594.63
2023-07-18T17:21:44.029Z,101594.63
2023-07-18T17:24:10.640Z,101591.06
2023-07-18T17:26:37.433Z,101590.47
2023-07-18T17:29:03.892Z,101592.06
2023-07-18T17:31:31.482Z,101592.56
2023-07-18T17:34:00.051Z,101594.97
2023-07-18T17:36:26.622Z,101589.41
2023-07-18T17:41:22.008Z,101589.06
2023-07-18T17:43:49.270Z,101588.00
2023-07-18T17:46:15.731Z,101591.31
2023-07-18T17:48:42.529Z,101585.25
2023-07-18T17:51:08.983Z,101586.91
2023-07-18T17:53:38.808Z,101586.31
2023-07-18T17:56:05.850Z,101590.75
2023-07-18T17:58:32.430Z,101593.50
2023-07-18T18:00:58.837Z,101580.84
2023-07-18T18:03:25.443Z,101580.78
2023-07-18T18:05:52.900Z,101579.69
2023-07-18T18:08:19.570Z,101585.75
2023-07-18T18:10:46.936Z,101584.34
2023-07-18T18:13:14.726Z,101579.88
2023-07-18T18:15:56.374Z,101577.91
2023-07-18T18:18:30.998Z,101585.22
2023-07-18T18:21:01.431Z,101581.63
2023-07-18T18:23:38.729Z,101583.28
2023-07-18T18:26:07.035Z,101581.63
2023-07-18T18:28:33.851Z,101578.06
2023-07-18T18:31:00.758Z,101585.47
2023-07-18T18:33:27.467Z,101583.50
2023-07-18T18:35:55.435Z,101584.88
2023-07-18T18:38:22.031Z,101579.66
2023-07-18T18:40:49.073Z,101571.44
2023-07-18T18:43:15.574Z,101573.50
2023-07-18T18:45:42.027Z,101575.69
2023-07-18T18:48:10.914Z,101580.09
2023-07-18T18:50:37.649Z,101574.00
2023-07-18T18:53:04.146Z,101564.88
2023-07-18T18:55:33.571Z,101570.31
2023-07-18T18:58:00.836Z,101562.84
2023-07-18T19:00:27.379Z,101555.94
2023-07-18T19:02:54.288Z,101549.38
2023-07-18T19:05:21.298Z,101545.22
2023-07-18T19:07:47.927Z,101549.38
2023-07-18T19:10:14.507Z,101545.53
2023-07-18T19:12:41.175Z,101551.63
2023-07-18T19:15:08.136Z,101543.41
2023-07-18T19:17:34.768Z,101541.97
2023-07-18T19:20:01.302Z,101539.75
2023-07-18T19:22:27.800Z,101533.63
2023-07-18T19:24:54.295Z,101528.88
2023-07-18T19:27:20.926Z,101530.47
2023-07-18T19:29:47.727Z,101525.22
2023-07-18T19:32:14.342Z,101530.13
2023-07-18T19:34:44.661Z,101532.88
2023-07-18T19:37:11.108Z,101534.97
2023-07-18T19:39:38.257Z,101544.53
2023-07-18T19:42:05.685Z,101545.03
2023-07-18T19:44:32.684Z,101540.88
2023-07-18T19:46:59.244Z,101546.00
2023-07-18T19:49:26.409Z,101556.88
2023-07-18T19:51:53.976Z,101555.50
2023-07-18T19:54:20.469Z,101545.03
2023-07-18T19:56:47.733Z,101540.88
2023-07-18T19:59:14.589Z,101543.59
2023-07-18T20:01:41.263Z,101546.59
2023-07-18T20:04:07.982Z,101537.78
2023-07-18T20:06:34.565Z,101544.09
2023-07-18T20:09:01.706Z,101537.44
2023-07-18T20:11:28.654Z,101537.13
2023-07-18T20:13:55.307Z,101534.06
2023-07-18T20:16:22.544Z,101522.28
2023-07-18T20:18:52.526Z,101521.41
2023-07-18T20:21:22.426Z,101518.34
2023-07-18T20:23:49.036Z,101515.59
2023-07-18T20:26:15.568Z,101514.22
2023-07-18T20:28:42.102Z,101517.44
2023-07-18T20:31:08.601Z,101513.28
2023-07-18T20:33:35.344Z,101509.13
2023-07-18T20:36:01.994Z,101510.22
2023-07-18T20:38:28.560Z,101527.34
2023-07-18T20:40:55.120Z,101514.41
2023-07-18T20:43:22.469Z,101526.09
2023-07-18T20:46:02.580Z,101516.50
2023-07-18T20:48:30.628Z,101522.44
2023-07-18T20:50:58.499Z,101522.66
2023-07-18T20:53:26.222Z,101513.88
2023-07-18T20:55:52.828Z,101517.09
2023-07-18T20:58:19.309Z,101513.16
2023-07-18T21:00:46.072Z,101507.69
2023-07-18T21:03:12.794Z,101496.75
2023-07-18T21:05:39.641Z,101499.75
2023-07-18T21:08:07.174Z,101497.56
2023-07-18T21:10:34.561Z,101499.25
2023-07-18T21:13:01.498Z,101497.56
2023-07-18T21:15:28.075Z,101503.06
2023-07-18T21:17:54.725Z,101494.84
2023-07-18T21:20:21.324Z,101492.38
2023-07-18T21:22:47.942Z,101488.19
2023-07-18T21:25:14.754Z,101491.44
2023-07-18T21:27:41.164Z,101491.44
2023-07-18T21:30:11.006Z,101488.13
2023-07-18T21:32:37.718Z,101481.81
2023-07-18T21:35:04.444Z,101477.66
2023-07-18T21:37:30.930Z,101477.66
2023-07-18T21:39:57.475Z,101479.81
2023-07-18T21:42:24.005Z,101479.81
2023-07-18T21:44:50.585Z,101482.78
2023-07-18T21:47:17.073Z,101476.75
2023-07-18T21:49:43.574Z,101476.66
2023-07-18T21:52:10.045Z,101470.84
2023-07-18T21:54:36.484Z,101472.97
2023-07-18T21:57:03.087Z,101469.66
2023-07-18T21:59:29.532Z,101472.59
2023-07-18T22:01:56.052Z,101475.00
2023-07-18T22:04:23.183Z,101480.72
2023-07-18T22:06:49.784Z,101470.50
2023-07-18T22:09:16.295Z,101477.28
2023-07-18T22:11:42.709Z,101478.34
2023-07-18T22:14:09.184Z,101475.88
2023-07-18T22:16:35.765Z,101484.31
2023-07-18T22:19:02.486Z,101479.09
2023-07-18T22:21:28.916Z,101475.75
2023-07-18T22:23:55.544Z,101482.28
2023-07-18T22:26:22.081Z,101483.63
2023-07-18T22:28:48.567Z,101486.84
2023-07-18T22:31:15.110Z,101495.25
2023-07-18T22:33:42.017Z,101492.75
2023-07-18T22:36:09.056Z,101485.66
2023-07-18T22:38:35.498Z,101482.09
2023-07-18T22:41:03.556Z,101478.75
2023-07-18T22:43:30.517Z,101476.28
2023-07-18T22:45:57.078Z,101470.47
2023-07-18T22:48:23.558Z,101469.03
2023-07-18T22:50:53.041Z,101461.81
2023-07-18T22:53:19.637Z,101467.13
2023-07-18T22:55:49.506Z,101467.81
2023-07-18T22:58:17.513Z,101471.50
2023-07-18T23:00:44.296Z,101472.47
2023-07-18T23:03:10.811Z,101469.38
2023-07-18T23:05:37.408Z,101458.13
2023-07-18T23:08:05.362Z,101462.13
2023-07-18T23:10:32.239Z,101465.34
2023-07-18T23:12:59.626Z,101463.31
2023-07-18T23:15:26.341Z,101464.63
2023-07-18T23:17:52.927Z,101459.41
2023-07-18T23:20:19.836Z,101452.50
2023-07-18T23:22:46.463Z,101452.19
2023-07-18T23:25:13.360Z,101447.19
2023-07-18T23:27:39.895Z,101449.31
2023-07-18T23:30:07.299Z,101441.38
2023-07-18T23:32:34.086Z,101452.75
2023-07-18T23:35:00.794Z,101441.47
2023-07-18T23:37:27.364Z,101445.28
2023-07-18T23:39:53.868Z,101445.28
2023-07-18T23:42:20.331Z,101437.09
2023-07-18T23:44:46.874Z,101435.19
2023-07-18T23:47:13.343Z,101438.97
2023-07-18T23:49:39.848Z,101439.22
2023-07-18T23:52:07.643Z,101432.91
2023-07-18T23:54:34.252Z,101430.44
2023-07-18T23:57:00.793Z,101429.38
2023-07-18T23:59:27.272Z,101426.63
